St Columbans, Nebraska
Current Conditions -  °F | °C
As of 10:15 AM on Thursday 27 Nov 2014 (Local Time) from KMLE Reporting Station
Overcast Overcast  
Wind Chill: 19°   Ceiling: 4500
Heat Index: 19°   Visibility: 10mi
Dew Point: 11°   Wind: 0mph
Humidity: 70%   Direction: NA
Pressure: 30.53"   Gusts: NA
Location:  41.0927°N, 96.0905°W
Report Text: KMLE 271615Z AUTO 00000KT 10SM OVC045 M07/M12 A3053 RMK AO2 T10711117
Loading
Personal Weather Stations






























Interactive Weather Map New forecast layout! Learn more

10-Day Weather Forecast

Advertisements
Track Severe Weather on mobile